sensor_id;sensor_type;location;lat;lon;timestamp;temperature;humidity
25652;DHT22;13508;50.734;4.232;2022-09-09T00:05:15;15.60;99.90
25652;DHT22;13508;50.734;4.232;2022-09-09T00:08:28;15.60;99.90
25652;DHT22;13508;50.734;4.232;2022-09-09T00:12:01;15.60;99.90
25652;DHT22;13508;50.734;4.232;2022-09-09T00:15:12;15.50;99.90
25652;DHT22;13508;50.734;4.232;2022-09-09T00:18:18;15.50;99.90
25652;DHT22;13508;50.734;4.232;2022-09-09T00:21:47;15.70;99.90
25652;DHT22;13508;50.734;4.232;2022-09-09T00:24:55;15.60;99.90
25652;DHT22;13508;50.734;4.232;2022-09-09T00:27:59;15.80;99.90
25652;DHT22;13508;50.734;4.232;2022-09-09T00:31:13;15.90;99.90
25652;DHT22;13508;50.734;4.232;2022-09-09T00:34:23;15.80;99.90
25652;DHT22;13508;50.734;4.232;2022-09-09T00:37:28;15.70;99.90
25652;DHT22;13508;50.734;4.232;2022-09-09T00:40:38;15.80;99.90
25652;DHT22;13508;50.734;4.232;2022-09-09T00:44:31;15.80;99.90
25652;DHT22;13508;50.734;4.232;2022-09-09T00:51:00;15.80;99.90
25652;DHT22;13508;50.734;4.232;2022-09-09T00:57:30;15.90;99.90
25652;DHT22;13508;50.734;4.232;2022-09-09T01:01:08;15.90;99.90
25652;DHT22;13508;50.734;4.232;2022-09-09T01:04:20;15.70;99.90
25652;DHT22;13508;50.734;4.232;2022-09-09T01:07:26;15.70;99.90
25652;DHT22;13508;50.734;4.232;2022-09-09T01:10:41;15.70;99.90
25652;DHT22;13508;50.734;4.232;2022-09-09T01:13:58;15.80;99.90
25652;DHT22;13508;50.734;4.232;2022-09-09T01:17:17;15.80;99.90
25652;DHT22;13508;50.734;4.232;2022-09-09T01:20:37;15.70;99.90
25652;DHT22;13508;50.734;4.232;2022-09-09T01:24:08;15.70;99.90
25652;DHT22;13508;50.734;4.232;2022-09-09T01:27:15;15.70;99.90
25652;DHT22;13508;50.734;4.232;2022-09-09T01:30:21;15.60;99.90
25652;DHT22;13508;50.734;4.232;2022-09-09T01:33:24;15.50;99.90
25652;DHT22;13508;50.734;4.232;2022-09-09T01:36:39;15.50;99.90
25652;DHT22;13508;50.734;4.232;2022-09-09T01:39:45;15.50;99.90
25652;DHT22;13508;50.734;4.232;2022-09-09T01:42:48;15.50;99.90
25652;DHT22;13508;50.734;4.232;2022-09-09T01:45:56;15.60;99.90
25652;DHT22;13508;50.734;4.232;2022-09-09T01:49:04;15.60;99.90
25652;DHT22;13508;50.734;4.232;2022-09-09T01:52:08;15.50;99.90
25652;DHT22;13508;50.734;4.232;2022-09-09T01:55:12;15.60;99.90
25652;DHT22;13508;50.734;4.232;2022-09-09T01:58:37;15.60;99.90
25652;DHT22;13508;50.734;4.232;2022-09-09T02:02:11;15.60;99.90
25652;DHT22;13508;50.734;4.232;2022-09-09T02:05:39;15.60;99.90
25652;DHT22;13508;50.734;4.232;2022-09-09T02:08:50;15.50;99.90
25652;DHT22;13508;50.734;4.232;2022-09-09T02:12:12;15.50;99.90
25652;DHT22;13508;50.734;4.232;2022-09-09T02:15:23;15.50;99.90
25652;DHT22;13508;50.734;4.232;2022-09-09T02:18:40;15.60;99.90
25652;DHT22;13508;50.734;4.232;2022-09-09T02:21:45;15.50;99.90
25652;DHT22;13508;50.734;4.232;2022-09-09T02:24:50;15.40;99.90
25652;DHT22;13508;50.734;4.232;2022-09-09T02:27:56;15.40;99.90
25652;DHT22;13508;50.734;4.232;2022-09-09T02:31:04;15.50;99.90
25652;DHT22;13508;50.734;4.232;2022-09-09T02:34:09;15.50;99.90
25652;DHT22;13508;50.734;4.232;2022-09-09T02:37:17;15.40;99.90
25652;DHT22;13508;50.734;4.232;2022-09-09T02:40:21;15.40;99.90
25652;DHT22;13508;50.734;4.232;2022-09-09T02:43:25;15.40;99.90
25652;DHT22;13508;50.734;4.232;2022-09-09T02:54:07;15.50;99.90
25652;DHT22;13508;50.734;4.232;2022-09-09T02:56:53;15.40;99.90
25652;DHT22;13508;50.734;4.232;2022-09-09T02:59:59;15.40;99.90
25652;DHT22;13508;50.734;4.232;2022-09-09T03:03:03;15.60;99.90
25652;DHT22;13508;50.734;4.232;2022-09-09T03:06:07;15.60;99.90
25652;DHT22;13508;50.734;4.232;2022-09-09T03:09:11;15.60;99.90
25652;DHT22;13508;50.734;4.232;2022-09-09T03:12:14;15.50;99.90
25652;DHT22;13508;50.734;4.232;2022-09-09T03:15:17;15.50;99.90
25652;DHT22;13508;50.734;4.232;2022-09-09T03:18:21;15.40;99.90
25652;DHT22;13508;50.734;4.232;2022-09-09T03:21:24;15.40;99.90
25652;DHT22;13508;50.734;4.232;2022-09-09T03:24:27;15.40;99.90
25652;DHT22;13508;50.734;4.232;2022-09-09T03:27:31;15.40;99.90
25652;DHT22;13508;50.734;4.232;2022-09-09T03:30:34;15.50;99.90
25652;DHT22;13508;50.734;4.232;2022-09-09T03:33:38;15.50;99.90
25652;DHT22;13508;50.734;4.232;2022-09-09T03:36:41;15.50;99.90
25652;DHT22;13508;50.734;4.232;2022-09-09T03:39:44;15.40;99.90
25652;DHT22;13508;50.734;4.232;2022-09-09T03:42:48;15.50;99.90
25652;DHT22;13508;50.734;4.232;2022-09-09T03:45:52;15.40;99.90
25652;DHT22;13508;50.734;4.232;2022-09-09T03:48:55;15.40;99.90
25652;DHT22;13508;50.734;4.232;2022-09-09T03:51:58;15.40;99.90
25652;DHT22;13508;50.734;4.232;2022-09-09T03:55:02;15.50;99.90
25652;DHT22;13508;50.734;4.232;2022-09-09T03:58:05;15.60;99.90
25652;DHT22;13508;50.734;4.232;2022-09-09T04:01:13;15.50;99.90
25652;DHT22;13508;50.734;4.232;2022-09-09T04:04:17;15.70;99.90
25652;DHT22;13508;50.734;4.232;2022-09-09T04:07:20;15.70;99.90
25652;DHT22;13508;50.734;4.232;2022-09-09T04:10:24;15.60;99.90
25652;DHT22;13508;50.734;4.232;2022-09-09T04:13:28;15.50;99.90
25652;DHT22;13508;50.734;4.232;2022-09-09T04:16:31;15.60;99.90
25652;DHT22;13508;50.734;4.232;2022-09-09T04:19:34;15.60;99.90
25652;DHT22;13508;50.734;4.232;2022-09-09T04:22:37;15.60;99.90
25652;DHT22;13508;50.734;4.232;2022-09-09T04:25:45;15.60;99.90
25652;DHT22;13508;50.734;4.232;2022-09-09T04:28:49;15.60;99.90
25652;DHT22;13508;50.734;4.232;2022-09-09T04:31:53;15.60;99.90
25652;DHT22;13508;50.734;4.232;2022-09-09T04:34:56;15.60;99.90
25652;DHT22;13508;50.734;4.232;2022-09-09T04:38:00;15.50;99.90
25652;DHT22;13508;50.734;4.232;2022-09-09T04:41:06;15.50;99.90
25652;DHT22;13508;50.734;4.232;2022-09-09T04:44:09;15.50;99.90
25652;DHT22;13508;50.734;4.232;2022-09-09T04:47:13;15.40;99.90
25652;DHT22;13508;50.734;4.232;2022-09-09T04:50:17;15.40;99.90
25652;DHT22;13508;50.734;4.232;2022-09-09T04:53:20;15.50;99.90
25652;DHT22;13508;50.734;4.232;2022-09-09T04:56:25;15.50;99.90
25652;DHT22;13508;50.734;4.232;2022-09-09T04:59:31;15.60;99.90
25652;DHT22;13508;50.734;4.232;2022-09-09T05:02:37;15.70;99.90
25652;DHT22;13508;50.734;4.232;2022-09-09T05:05:41;15.70;99.90
25652;DHT22;13508;50.734;4.232;2022-09-09T05:08:45;15.70;99.90
25652;DHT22;13508;50.734;4.232;2022-09-09T05:11:48;15.70;99.90
25652;DHT22;13508;50.734;4.232;2022-09-09T05:14:52;15.70;99.90
25652;DHT22;13508;50.734;4.232;2022-09-09T05:18:00;15.70;99.90
25652;DHT22;13508;50.734;4.232;2022-09-09T05:21:04;15.90;99.90
25652;DHT22;13508;50.734;4.232;2022-09-09T05:24:07;15.90;99.90
25652;DHT22;13508;50.734;4.232;2022-09-09T05:27:11;15.80;99.90
25652;DHT22;13508;50.734;4.232;2022-09-09T05:30:15;15.70;99.90
25652;DHT22;13508;50.734;4.232;2022-09-09T05:33:19;15.90;99.90
25652;DHT22;13508;50.734;4.232;2022-09-09T05:36:24;15.80;99.90
25652;DHT22;13508;50.734;4.232;2022-09-09T05:39:27;15.80;99.90
25652;DHT22;13508;50.734;4.232;2022-09-09T05:42:31;15.80;99.90
25652;DHT22;13508;50.734;4.232;2022-09-09T05:45:36;15.90;99.90
25652;DHT22;13508;50.734;4.232;2022-09-09T05:48:44;15.90;99.90
25652;DHT22;13508;50.734;4.232;2022-09-09T05:51:51;15.90;99.90
25652;DHT22;13508;50.734;4.232;2022-09-09T05:54:54;15.70;99.90
25652;DHT22;13508;50.734;4.232;2022-09-09T05:57:59;15.80;99.90
25652;DHT22;13508;50.734;4.232;2022-09-09T06:01:06;16.00;99.90
25652;DHT22;13508;50.734;4.232;2022-09-09T06:04:13;16.10;99.90
25652;DHT22;13508;50.734;4.232;2022-09-09T06:07:16;16.50;99.90
25652;DHT22;13508;50.734;4.232;2022-09-09T06:10:20;16.40;99.90
25652;DHT22;13508;50.734;4.232;2022-09-09T06:13:23;16.40;99.90
25652;DHT22;13508;50.734;4.232;2022-09-09T06:16:28;16.40;99.90
25652;DHT22;13508;50.734;4.232;2022-09-09T06:19:37;16.20;99.90
25652;DHT22;13508;50.734;4.232;2022-09-09T06:22:40;16.60;99.90
25652;DHT22;13508;50.734;4.232;2022-09-09T06:25:44;16.60;99.90
25652;DHT22;13508;50.734;4.232;2022-09-09T06:28:52;16.40;99.90
25652;DHT22;13508;50.734;4.232;2022-09-09T06:31:55;16.10;99.90
25652;DHT22;13508;50.734;4.232;2022-09-09T06:34:59;16.10;99.90
25652;DHT22;13508;50.734;4.232;2022-09-09T06:38:03;16.00;99.90
25652;DHT22;13508;50.734;4.232;2022-09-09T06:41:09;16.10;99.90
25652;DHT22;13508;50.734;4.232;2022-09-09T06:44:12;16.10;99.90
25652;DHT22;13508;50.734;4.232;2022-09-09T06:47:15;16.20;99.90
25652;DHT22;13508;50.734;4.232;2022-09-09T06:50:19;16.40;99.90
25652;DHT22;13508;50.734;4.232;2022-09-09T06:53:23;16.50;99.90
25652;DHT22;13508;50.734;4.232;2022-09-09T06:56:34;16.60;99.90
25652;DHT22;13508;50.734;4.232;2022-09-09T06:59:39;16.60;99.90
25652;DHT22;13508;50.734;4.232;2022-09-09T07:02:42;16.80;99.90
25652;DHT22;13508;50.734;4.232;2022-09-09T07:05:54;16.80;99.90
25652;DHT22;13508;50.734;4.232;2022-09-09T07:09:00;16.90;99.90
25652;DHT22;13508;50.734;4.232;2022-09-09T07:12:04;16.70;99.90
25652;DHT22;13508;50.734;4.232;2022-09-09T07:15:09;16.80;99.90
25652;DHT22;13508;50.734;4.232;2022-09-09T07:18:12;16.80;99.90
25652;DHT22;13508;50.734;4.232;2022-09-09T07:21:17;16.60;99.90
25652;DHT22;13508;50.734;4.232;2022-09-09T07:24:20;16.70;99.90
25652;DHT22;13508;50.734;4.232;2022-09-09T07:27:23;16.30;99.90
25652;DHT22;13508;50.734;4.232;2022-09-09T07:30:27;16.00;99.90
25652;DHT22;13508;50.734;4.232;2022-09-09T07:33:33;16.00;99.90
25652;DHT22;13508;50.734;4.232;2022-09-09T07:36:38;15.90;99.90
25652;DHT22;13508;50.734;4.232;2022-09-09T07:39:42;15.90;99.90
25652;DHT22;13508;50.734;4.232;2022-09-09T07:42:46;15.80;99.90
25652;DHT22;13508;50.734;4.232;2022-09-09T07:45:57;15.80;99.90
25652;DHT22;13508;50.734;4.232;2022-09-09T07:49:19;15.80;99.90
25652;DHT22;13508;50.734;4.232;2022-09-09T07:52:23;16.00;99.90
25652;DHT22;13508;50.734;4.232;2022-09-09T07:55:27;16.10;99.90
25652;DHT22;13508;50.734;4.232;2022-09-09T07:58:30;16.40;99.90
25652;DHT22;13508;50.734;4.232;2022-09-09T08:01:37;16.60;99.90
25652;DHT22;13508;50.734;4.232;2022-09-09T08:04:42;16.80;99.90
25652;DHT22;13508;50.734;4.232;2022-09-09T08:07:44;17.00;99.90
25652;DHT22;13508;50.734;4.232;2022-09-09T08:10:48;17.40;99.90
25652;DHT22;13508;50.734;4.232;2022-09-09T08:13:52;17.70;99.90
25652;DHT22;13508;50.734;4.232;2022-09-09T08:16:56;17.50;99.90
25652;DHT22;13508;50.734;4.232;2022-09-09T08:20:00;17.60;99.90
25652;DHT22;13508;50.734;4.232;2022-09-09T08:23:07;17.30;99.90
25652;DHT22;13508;50.734;4.232;2022-09-09T08:26:13;17.30;99.90
25652;DHT22;13508;50.734;4.232;2022-09-09T08:29:18;17.10;99.90
25652;DHT22;13508;50.734;4.232;2022-09-09T08:32:21;17.10;99.90
25652;DHT22;13508;50.734;4.232;2022-09-09T08:35:25;17.10;99.90
25652;DHT22;13508;50.734;4.232;2022-09-09T08:38:28;17.10;99.90
25652;DHT22;13508;50.734;4.232;2022-09-09T08:46:18;17.00;99.90
25652;DHT22;13508;50.734;4.232;2022-09-09T08:49:13;16.90;99.90
25652;DHT22;13508;50.734;4.232;2022-09-09T08:52:23;16.60;99.90
25652;DHT22;13508;50.734;4.232;2022-09-09T08:58:35;16.60;99.90
25652;DHT22;13508;50.734;4.232;2022-09-09T09:05:19;16.50;99.90
25652;DHT22;13508;50.734;4.232;2022-09-09T09:08:35;16.50;99.90
25652;DHT22;13508;50.734;4.232;2022-09-09T09:11:48;16.40;99.90
25652;DHT22;13508;50.734;4.232;2022-09-09T09:14:52;16.40;99.90
25652;DHT22;13508;50.734;4.232;2022-09-09T09:17:58;16.40;99.90
25652;DHT22;13508;50.734;4.232;2022-09-09T09:21:16;16.40;99.90
25652;DHT22;13508;50.734;4.232;2022-09-09T09:27:49;16.20;99.90
25652;DHT22;13508;50.734;4.232;2022-09-09T09:31:11;16.30;99.90
25652;DHT22;13508;50.734;4.232;2022-09-09T09:34:15;16.40;99.90
25652;DHT22;13508;50.734;4.232;2022-09-09T09:37:28;16.50;99.90
25652;DHT22;13508;50.734;4.232;2022-09-09T09:40:32;16.60;99.90
25652;DHT22;13508;50.734;4.232;2022-09-09T09:43:40;16.50;99.90
25652;DHT22;13508;50.734;4.232;2022-09-09T09:46:43;16.60;99.90
25652;DHT22;13508;50.734;4.232;2022-09-09T09:49:57;16.50;99.90
25652;DHT22;13508;50.734;4.232;2022-09-09T09:53:04;16.50;99.90
25652;DHT22;13508;50.734;4.232;2022-09-09T09:56:13;16.50;99.90
25652;DHT22;13508;50.734;4.232;2022-09-09T10:02:36;16.70;99.90
25652;DHT22;13508;50.734;4.232;2022-09-09T10:05:45;16.60;99.90
25652;DHT22;13508;50.734;4.232;2022-09-09T10:08:48;16.60;99.90
25652;DHT22;13508;50.734;4.232;2022-09-09T10:19:29;17.00;99.90
25652;DHT22;13508;50.734;4.232;2022-09-09T10:22:33;17.10;99.90
25652;DHT22;13508;50.734;4.232;2022-09-09T10:25:58;17.30;99.90
25652;DHT22;13508;50.734;4.232;2022-09-09T10:39:05;17.60;99.90
25652;DHT22;13508;50.734;4.232;2022-09-09T10:42:16;17.70;99.90
25652;DHT22;13508;50.734;4.232;2022-09-09T10:45:55;17.80;99.90
25652;DHT22;13508;50.734;4.232;2022-09-09T10:55:37;17.90;99.90
25652;DHT22;13508;50.734;4.232;2022-09-09T10:58:56;17.70;99.90
25652;DHT22;13508;50.734;4.232;2022-09-09T11:05:27;17.80;99.90
25652;DHT22;13508;50.734;4.232;2022-09-09T11:08:34;18.10;99.90
25652;DHT22;13508;50.734;4.232;2022-09-09T11:11:52;18.30;99.90
25652;DHT22;13508;50.734;4.232;2022-09-09T11:15:08;18.50;99.90
25652;DHT22;13508;50.734;4.232;2022-09-09T11:18:21;18.40;99.90
25652;DHT22;13508;50.734;4.232;2022-09-09T11:21:30;18.40;99.90
25652;DHT22;13508;50.734;4.232;2022-09-09T11:31:57;18.50;99.90
25652;DHT22;13508;50.734;4.232;2022-09-09T11:38:56;18.20;99.90
25652;DHT22;13508;50.734;4.232;2022-09-09T11:45:23;18.20;99.90
25652;DHT22;13508;50.734;4.232;2022-09-09T11:48:41;18.20;99.90
25652;DHT22;13508;50.734;4.232;2022-09-09T11:51:48;17.90;99.90
25652;DHT22;13508;50.734;4.232;2022-09-09T11:54:55;18.00;99.90
25652;DHT22;13508;50.734;4.232;2022-09-09T12:01:16;18.40;99.90
25652;DHT22;13508;50.734;4.232;2022-09-09T12:04:31;18.50;99.90
25652;DHT22;13508;50.734;4.232;2022-09-09T12:07:41;18.50;99.90
25652;DHT22;13508;50.734;4.232;2022-09-09T12:10:57;18.50;99.90
25652;DHT22;13508;50.734;4.232;2022-09-09T12:14:01;18.60;99.90
25652;DHT22;13508;50.734;4.232;2022-09-09T12:17:22;18.50;99.90
25652;DHT22;13508;50.734;4.232;2022-09-09T12:20:35;18.90;99.90
25652;DHT22;13508;50.734;4.232;2022-09-09T12:27:27;19.10;99.90
25652;DHT22;13508;50.734;4.232;2022-09-09T12:34:16;19.60;99.90
25652;DHT22;13508;50.734;4.232;2022-09-09T12:37:36;19.80;99.90
25652;DHT22;13508;50.734;4.232;2022-09-09T12:40:39;19.40;99.90
25652;DHT22;13508;50.734;4.232;2022-09-09T12:43:43;19.50;99.90
25652;DHT22;13508;50.734;4.232;2022-09-09T12:46:46;19.30;99.90
25652;DHT22;13508;50.734;4.232;2022-09-09T12:49:50;19.20;99.90
25652;DHT22;13508;50.734;4.232;2022-09-09T12:52:56;19.00;99.90
25652;DHT22;13508;50.734;4.232;2022-09-09T12:56:06;18.70;99.90
25652;DHT22;13508;50.734;4.232;2022-09-09T13:02:26;19.40;99.90
25652;DHT22;13508;50.734;4.232;2022-09-09T13:06:10;19.60;99.90
25652;DHT22;13508;50.734;4.232;2022-09-09T13:09:14;19.80;99.90
25652;DHT22;13508;50.734;4.232;2022-09-09T13:12:22;20.00;99.90
25652;DHT22;13508;50.734;4.232;2022-09-09T13:15:28;20.20;99.90
25652;DHT22;13508;50.734;4.232;2022-09-09T13:18:34;20.40;99.90
25652;DHT22;13508;50.734;4.232;2022-09-09T13:21:39;20.30;99.90
25652;DHT22;13508;50.734;4.232;2022-09-09T13:24:42;20.00;99.90
25652;DHT22;13508;50.734;4.232;2022-09-09T13:27:59;20.20;99.90
25652;DHT22;13508;50.734;4.232;2022-09-09T13:31:06;20.70;99.90
25652;DHT22;13508;50.734;4.232;2022-09-09T13:34:29;20.70;99.90
25652;DHT22;13508;50.734;4.232;2022-09-09T13:37:39;20.60;99.90
25652;DHT22;13508;50.734;4.232;2022-09-09T13:41:08;20.50;99.90
25652;DHT22;13508;50.734;4.232;2022-09-09T13:44:28;20.60;99.90
25652;DHT22;13508;50.734;4.232;2022-09-09T13:47:33;20.70;99.90
25652;DHT22;13508;50.734;4.232;2022-09-09T13:50:54;20.70;99.90
25652;DHT22;13508;50.734;4.232;2022-09-09T13:53:58;20.60;99.90
25652;DHT22;13508;50.734;4.232;2022-09-09T13:57:02;20.70;99.90
25652;DHT22;13508;50.734;4.232;2022-09-09T14:00:06;20.30;99.90
25652;DHT22;13508;50.734;4.232;2022-09-09T14:03:12;20.30;99.90
25652;DHT22;13508;50.734;4.232;2022-09-09T14:06:16;20.20;99.90
25652;DHT22;13508;50.734;4.232;2022-09-09T14:09:21;20.00;99.90
25652;DHT22;13508;50.734;4.232;2022-09-09T14:12:25;19.90;99.90
25652;DHT22;13508;50.734;4.232;2022-09-09T14:15:28;19.90;99.90
25652;DHT22;13508;50.734;4.232;2022-09-09T14:18:32;20.10;99.90
25652;DHT22;13508;50.734;4.232;2022-09-09T14:21:36;20.00;99.90
25652;DHT22;13508;50.734;4.232;2022-09-09T14:24:39;20.10;99.90
25652;DHT22;13508;50.734;4.232;2022-09-09T14:27:43;20.10;99.90
25652;DHT22;13508;50.734;4.232;2022-09-09T14:30:48;20.10;99.90
25652;DHT22;13508;50.734;4.232;2022-09-09T14:33:52;20.10;99.90
25652;DHT22;13508;50.734;4.232;2022-09-09T14:36:55;20.00;99.90
25652;DHT22;13508;50.734;4.232;2022-09-09T14:39:59;20.10;99.90
25652;DHT22;13508;50.734;4.232;2022-09-09T14:43:03;20.40;99.90
25652;DHT22;13508;50.734;4.232;2022-09-09T14:46:09;20.60;99.90
25652;DHT22;13508;50.734;4.232;2022-09-09T14:49:12;20.70;99.90
25652;DHT22;13508;50.734;4.232;2022-09-09T14:52:16;20.70;99.90
25652;DHT22;13508;50.734;4.232;2022-09-09T14:55:20;20.50;99.90
25652;DHT22;13508;50.734;4.232;2022-09-09T14:58:30;20.60;99.90
25652;DHT22;13508;50.734;4.232;2022-09-09T15:01:34;20.30;99.90
25652;DHT22;13508;50.734;4.232;2022-09-09T15:04:37;20.40;99.90
25652;DHT22;13508;50.734;4.232;2022-09-09T15:07:41;20.40;99.90
25652;DHT22;13508;50.734;4.232;2022-09-09T15:10:45;20.00;99.90
25652;DHT22;13508;50.734;4.232;2022-09-09T15:13:51;20.10;99.90
25652;DHT22;13508;50.734;4.232;2022-09-09T15:16:57;20.00;99.90
25652;DHT22;13508;50.734;4.232;2022-09-09T15:20:02;20.00;99.90
25652;DHT22;13508;50.734;4.232;2022-09-09T15:23:06;20.00;99.90
25652;DHT22;13508;50.734;4.232;2022-09-09T15:26:11;19.60;99.90
25652;DHT22;13508;50.734;4.232;2022-09-09T15:29:17;19.60;99.90
25652;DHT22;13508;50.734;4.232;2022-09-09T15:32:22;19.60;99.90
25652;DHT22;13508;50.734;4.232;2022-09-09T15:35:25;19.60;99.90
25652;DHT22;13508;50.734;4.232;2022-09-09T15:38:31;19.60;99.90
25652;DHT22;13508;50.734;4.232;2022-09-09T15:41:34;19.40;99.90
25652;DHT22;13508;50.734;4.232;2022-09-09T15:44:39;19.40;99.90
25652;DHT22;13508;50.734;4.232;2022-09-09T15:47:42;19.80;99.90
25652;DHT22;13508;50.734;4.232;2022-09-09T15:50:46;20.00;99.90
25652;DHT22;13508;50.734;4.232;2022-09-09T15:53:54;20.30;99.90
25652;DHT22;13508;50.734;4.232;2022-09-09T15:57:01;20.40;99.90
25652;DHT22;13508;50.734;4.232;2022-09-09T16:00:05;20.30;99.90
25652;DHT22;13508;50.734;4.232;2022-09-09T16:03:09;20.10;99.90
25652;DHT22;13508;50.734;4.232;2022-09-09T16:06:22;20.20;99.90
25652;DHT22;13508;50.734;4.232;2022-09-09T16:09:27;20.10;99.90
25652;DHT22;13508;50.734;4.232;2022-09-09T16:12:30;20.10;99.90
25652;DHT22;13508;50.734;4.232;2022-09-09T16:15:33;20.30;99.90
25652;DHT22;13508;50.734;4.232;2022-09-09T16:18:39;20.10;99.90
25652;DHT22;13508;50.734;4.232;2022-09-09T16:21:47;19.90;99.90
25652;DHT22;13508;50.734;4.232;2022-09-09T16:24:50;19.70;99.90
25652;DHT22;13508;50.734;4.232;2022-09-09T16:27:53;19.60;99.90
25652;DHT22;13508;50.734;4.232;2022-09-09T16:31:04;19.60;99.90
25652;DHT22;13508;50.734;4.232;2022-09-09T16:34:08;19.40;99.90
25652;DHT22;13508;50.734;4.232;2022-09-09T16:37:12;19.40;99.90
25652;DHT22;13508;50.734;4.232;2022-09-09T16:40:15;19.30;99.90
25652;DHT22;13508;50.734;4.232;2022-09-09T16:43:19;19.30;99.90
25652;DHT22;13508;50.734;4.232;2022-09-09T16:46:24;19.50;99.90
25652;DHT22;13508;50.734;4.232;2022-09-09T16:49:27;19.80;99.90
25652;DHT22;13508;50.734;4.232;2022-09-09T16:52:33;20.00;99.90
25652;DHT22;13508;50.734;4.232;2022-09-09T16:55:39;19.90;99.90
25652;DHT22;13508;50.734;4.232;2022-09-09T16:58:43;19.60;99.90
25652;DHT22;13508;50.734;4.232;2022-09-09T17:01:50;19.50;99.90
25652;DHT22;13508;50.734;4.232;2022-09-09T17:04:53;19.10;99.90
25652;DHT22;13508;50.734;4.232;2022-09-09T17:07:57;19.00;99.90
25652;DHT22;13508;50.734;4.232;2022-09-09T17:11:00;18.90;99.90
25652;DHT22;13508;50.734;4.232;2022-09-09T17:14:04;18.80;99.90
25652;DHT22;13508;50.734;4.232;2022-09-09T17:17:08;18.80;99.90
25652;DHT22;13508;50.734;4.232;2022-09-09T17:20:12;18.70;99.90
25652;DHT22;13508;50.734;4.232;2022-09-09T17:23:15;18.70;99.90
25652;DHT22;13508;50.734;4.232;2022-09-09T17:26:21;18.70;99.90
25652;DHT22;13508;50.734;4.232;2022-09-09T17:29:25;18.60;99.90
25652;DHT22;13508;50.734;4.232;2022-09-09T17:32:28;18.40;99.90
25652;DHT22;13508;50.734;4.232;2022-09-09T17:35:32;18.40;99.90
25652;DHT22;13508;50.734;4.232;2022-09-09T17:38:36;18.30;99.90
25652;DHT22;13508;50.734;4.232;2022-09-09T17:41:40;18.20;99.90
25652;DHT22;13508;50.734;4.232;2022-09-09T17:44:43;18.10;99.90
25652;DHT22;13508;50.734;4.232;2022-09-09T17:47:46;18.00;99.90
25652;DHT22;13508;50.734;4.232;2022-09-09T17:50:59;18.00;99.90
25652;DHT22;13508;50.734;4.232;2022-09-09T17:54:09;18.00;99.90
25652;DHT22;13508;50.734;4.232;2022-09-09T17:57:13;18.00;99.90
25652;DHT22;13508;50.734;4.232;2022-09-09T18:00:17;18.00;99.90
25652;DHT22;13508;50.734;4.232;2022-09-09T18:03:21;17.90;99.90
25652;DHT22;13508;50.734;4.232;2022-09-09T18:06:36;17.80;99.90
25652;DHT22;13508;50.734;4.232;2022-09-09T18:09:39;17.80;99.90
25652;DHT22;13508;50.734;4.232;2022-09-09T18:12:43;17.70;99.90
25652;DHT22;13508;50.734;4.232;2022-09-09T18:15:47;17.80;99.90
25652;DHT22;13508;50.734;4.232;2022-09-09T18:18:50;17.60;99.90
25652;DHT22;13508;50.734;4.232;2022-09-09T18:21:54;17.60;99.90
25652;DHT22;13508;50.734;4.232;2022-09-09T18:24:58;17.60;99.90
25652;DHT22;13508;50.734;4.232;2022-09-09T18:28:01;17.70;99.90
25652;DHT22;13508;50.734;4.232;2022-09-09T18:31:10;17.80;99.90
25652;DHT22;13508;50.734;4.232;2022-09-09T18:34:16;17.70;99.90
25652;DHT22;13508;50.734;4.232;2022-09-09T18:37:19;17.70;99.90
25652;DHT22;13508;50.734;4.232;2022-09-09T18:40:23;17.70;99.90
25652;DHT22;13508;50.734;4.232;2022-09-09T18:43:27;17.70;99.90
25652;DHT22;13508;50.734;4.232;2022-09-09T18:46:32;17.70;99.90
25652;DHT22;13508;50.734;4.232;2022-09-09T18:49:36;17.70;99.90
25652;DHT22;13508;50.734;4.232;2022-09-09T18:52:40;17.50;99.90
25652;DHT22;13508;50.734;4.232;2022-09-09T18:55:44;17.50;99.90
25652;DHT22;13508;50.734;4.232;2022-09-09T18:58:57;17.50;99.90
25652;DHT22;13508;50.734;4.232;2022-09-09T19:02:01;17.50;99.90
25652;DHT22;13508;50.734;4.232;2022-09-09T19:05:05;17.40;99.90
25652;DHT22;13508;50.734;4.232;2022-09-09T19:08:08;17.30;99.90
25652;DHT22;13508;50.734;4.232;2022-09-09T19:11:14;17.40;99.90
25652;DHT22;13508;50.734;4.232;2022-09-09T19:14:21;17.30;99.90
25652;DHT22;13508;50.734;4.232;2022-09-09T19:17:24;17.10;99.90
25652;DHT22;13508;50.734;4.232;2022-09-09T19:20:28;17.30;99.90
25652;DHT22;13508;50.734;4.232;2022-09-09T19:23:31;17.20;99.90
25652;DHT22;13508;50.734;4.232;2022-09-09T19:26:37;17.10;99.90
25652;DHT22;13508;50.734;4.232;2022-09-09T19:29:45;16.90;99.90
25652;DHT22;13508;50.734;4.232;2022-09-09T19:32:50;16.80;99.90
25652;DHT22;13508;50.734;4.232;2022-09-09T19:35:59;16.60;99.90
25652;DHT22;13508;50.734;4.232;2022-09-09T19:39:05;16.60;99.90
25652;DHT22;13508;50.734;4.232;2022-09-09T19:42:09;16.60;99.90
25652;DHT22;13508;50.734;4.232;2022-09-09T19:45:11;16.60;99.90
25652;DHT22;13508;50.734;4.232;2022-09-09T19:48:15;16.60;99.90
25652;DHT22;13508;50.734;4.232;2022-09-09T19:51:20;16.40;99.90
25652;DHT22;13508;50.734;4.232;2022-09-09T19:54:24;16.40;99.90
25652;DHT22;13508;50.734;4.232;2022-09-09T19:57:27;16.40;99.90
25652;DHT22;13508;50.734;4.232;2022-09-09T20:00:32;16.50;99.90
25652;DHT22;13508;50.734;4.232;2022-09-09T20:03:38;16.30;99.90
25652;DHT22;13508;50.734;4.232;2022-09-09T20:06:43;16.40;99.90
25652;DHT22;13508;50.734;4.232;2022-09-09T20:09:46;16.40;99.90
25652;DHT22;13508;50.734;4.232;2022-09-09T20:12:50;16.40;99.90
25652;DHT22;13508;50.734;4.232;2022-09-09T20:16:01;16.30;99.90
25652;DHT22;13508;50.734;4.232;2022-09-09T20:19:11;16.40;99.90
25652;DHT22;13508;50.734;4.232;2022-09-09T20:22:15;16.30;99.90
25652;DHT22;13508;50.734;4.232;2022-09-09T20:25:19;16.40;99.90
25652;DHT22;13508;50.734;4.232;2022-09-09T20:28:25;16.60;99.90
25652;DHT22;13508;50.734;4.232;2022-09-09T20:31:29;16.50;99.90
25652;DHT22;13508;50.734;4.232;2022-09-09T20:34:33;16.60;99.90
25652;DHT22;13508;50.734;4.232;2022-09-09T20:37:39;16.30;99.90
25652;DHT22;13508;50.734;4.232;2022-09-09T20:40:42;16.30;99.90
25652;DHT22;13508;50.734;4.232;2022-09-09T20:43:55;16.30;99.90
25652;DHT22;13508;50.734;4.232;2022-09-09T20:46:58;16.10;99.90
25652;DHT22;13508;50.734;4.232;2022-09-09T20:50:08;16.20;99.90
25652;DHT22;13508;50.734;4.232;2022-09-09T20:53:12;16.30;99.90
25652;DHT22;13508;50.734;4.232;2022-09-09T20:56:15;16.30;99.90
25652;DHT22;13508;50.734;4.232;2022-09-09T20:59:21;16.40;99.90
25652;DHT22;13508;50.734;4.232;2022-09-09T21:02:25;16.40;99.90
25652;DHT22;13508;50.734;4.232;2022-09-09T21:05:28;16.50;99.90
25652;DHT22;13508;50.734;4.232;2022-09-09T21:08:32;16.40;99.90
25652;DHT22;13508;50.734;4.232;2022-09-09T21:11:36;16.40;99.90